sensor_id;sensor_type;location;lat;lon;timestamp;temperature;humidity
5919;DHT22;2985;48.142;16.344;2022-07-09T00:01:41;16.50;99.90
5919;DHT22;2985;48.142;16.344;2022-07-09T00:06:32;16.50;99.90
5919;DHT22;2985;48.142;16.344;2022-07-09T00:11:23;16.50;99.90
5919;DHT22;2985;48.142;16.344;2022-07-09T00:16:14;16.50;99.90
5919;DHT22;2985;48.142;16.344;2022-07-09T00:21:05;16.40;99.90
5919;DHT22;2985;48.142;16.344;2022-07-09T00:25:55;16.40;99.90
5919;DHT22;2985;48.142;16.344;2022-07-09T00:30:46;16.50;99.90
5919;DHT22;2985;48.142;16.344;2022-07-09T00:35:37;16.50;99.90
5919;DHT22;2985;48.142;16.344;2022-07-09T00:40:27;16.50;99.90
5919;DHT22;2985;48.142;16.344;2022-07-09T00:45:18;16.60;99.90
5919;DHT22;2985;48.142;16.344;2022-07-09T00:50:10;16.60;99.90
5919;DHT22;2985;48.142;16.344;2022-07-09T00:55:01;16.60;99.90
5919;DHT22;2985;48.142;16.344;2022-07-09T00:59:53;16.60;99.90
5919;DHT22;2985;48.142;16.344;2022-07-09T01:04:45;16.60;99.90
5919;DHT22;2985;48.142;16.344;2022-07-09T01:09:35;16.60;99.90
5919;DHT22;2985;48.142;16.344;2022-07-09T01:14:27;16.50;99.90
5919;DHT22;2985;48.142;16.344;2022-07-09T01:19:18;16.50;99.90
5919;DHT22;2985;48.142;16.344;2022-07-09T01:24:08;16.40;99.90
5919;DHT22;2985;48.142;16.344;2022-07-09T01:28:59;16.40;99.90
5919;DHT22;2985;48.142;16.344;2022-07-09T01:33:50;16.30;99.90
5919;DHT22;2985;48.142;16.344;2022-07-09T01:38:40;16.30;99.90
5919;DHT22;2985;48.142;16.344;2022-07-09T01:43:31;16.20;99.90
5919;DHT22;2985;48.142;16.344;2022-07-09T01:48:23;16.10;99.90
5919;DHT22;2985;48.142;16.344;2022-07-09T01:53:14;16.00;99.90
5919;DHT22;2985;48.142;16.344;2022-07-09T01:58:05;16.10;99.90
5919;DHT22;2985;48.142;16.344;2022-07-09T02:02:56;15.90;99.90
5919;DHT22;2985;48.142;16.344;2022-07-09T02:07:47;15.90;99.90
5919;DHT22;2985;48.142;16.344;2022-07-09T02:12:39;15.90;99.90
5919;DHT22;2985;48.142;16.344;2022-07-09T02:17:31;15.80;99.90
5919;DHT22;2985;48.142;16.344;2022-07-09T02:22:23;15.70;99.90
5919;DHT22;2985;48.142;16.344;2022-07-09T02:27:13;15.60;99.90
5919;DHT22;2985;48.142;16.344;2022-07-09T02:32:04;15.50;99.90
5919;DHT22;2985;48.142;16.344;2022-07-09T02:36:56;15.50;99.90
5919;DHT22;2985;48.142;16.344;2022-07-09T02:41:46;15.50;99.90
5919;DHT22;2985;48.142;16.344;2022-07-09T02:46:37;15.50;99.90
5919;DHT22;2985;48.142;16.344;2022-07-09T02:51:28;15.50;99.90
5919;DHT22;2985;48.142;16.344;2022-07-09T02:56:19;15.60;99.90
5919;DHT22;2985;48.142;16.344;2022-07-09T03:01:10;15.70;99.90
5919;DHT22;2985;48.142;16.344;2022-07-09T03:06:02;15.80;99.90
5919;DHT22;2985;48.142;16.344;2022-07-09T03:10:53;15.80;99.90
5919;DHT22;2985;48.142;16.344;2022-07-09T03:15:43;15.90;99.90
5919;DHT22;2985;48.142;16.344;2022-07-09T03:20:35;16.00;99.90
5919;DHT22;2985;48.142;16.344;2022-07-09T03:25:26;16.10;99.90
5919;DHT22;2985;48.142;16.344;2022-07-09T03:30:17;16.10;99.90
5919;DHT22;2985;48.142;16.344;2022-07-09T03:35:08;16.20;99.90
5919;DHT22;2985;48.142;16.344;2022-07-09T03:39:58;16.30;99.90
5919;DHT22;2985;48.142;16.344;2022-07-09T03:44:49;16.40;99.90
5919;DHT22;2985;48.142;16.344;2022-07-09T03:49:40;16.40;99.90
5919;DHT22;2985;48.142;16.344;2022-07-09T03:54:30;16.50;99.90
5919;DHT22;2985;48.142;16.344;2022-07-09T03:59:21;16.50;99.90
5919;DHT22;2985;48.142;16.344;2022-07-09T04:04:12;16.50;99.90
5919;DHT22;2985;48.142;16.344;2022-07-09T04:09:03;16.50;99.90
5919;DHT22;2985;48.142;16.344;2022-07-09T04:13:58;16.50;99.90
5919;DHT22;2985;48.142;16.344;2022-07-09T04:18:49;16.50;99.90
5919;DHT22;2985;48.142;16.344;2022-07-09T04:23:39;16.60;99.90
5919;DHT22;2985;48.142;16.344;2022-07-09T04:28:30;16.60;99.90
5919;DHT22;2985;48.142;16.344;2022-07-09T04:33:21;16.70;99.90
5919;DHT22;2985;48.142;16.344;2022-07-09T04:38:12;16.90;99.90
5919;DHT22;2985;48.142;16.344;2022-07-09T04:43:03;16.90;99.90
5919;DHT22;2985;48.142;16.344;2022-07-09T04:47:54;16.80;99.90
5919;DHT22;2985;48.142;16.344;2022-07-09T04:52:44;16.90;99.90
5919;DHT22;2985;48.142;16.344;2022-07-09T04:57:36;17.00;99.90
5919;DHT22;2985;48.142;16.344;2022-07-09T05:02:27;17.10;99.90
5919;DHT22;2985;48.142;16.344;2022-07-09T05:07:18;17.20;99.90
5919;DHT22;2985;48.142;16.344;2022-07-09T05:12:09;17.20;99.90
5919;DHT22;2985;48.142;16.344;2022-07-09T05:17:00;17.30;99.90
5919;DHT22;2985;48.142;16.344;2022-07-09T05:21:51;17.40;99.90
5919;DHT22;2985;48.142;16.344;2022-07-09T05:26:42;17.50;99.90
5919;DHT22;2985;48.142;16.344;2022-07-09T05:31:33;17.70;99.90
5919;DHT22;2985;48.142;16.344;2022-07-09T05:36:24;17.80;99.90
5919;DHT22;2985;48.142;16.344;2022-07-09T05:41:15;18.00;99.90
5919;DHT22;2985;48.142;16.344;2022-07-09T05:46:06;18.10;99.90
5919;DHT22;2985;48.142;16.344;2022-07-09T05:50:56;18.10;99.90
5919;DHT22;2985;48.142;16.344;2022-07-09T05:55:47;18.30;99.90
5919;DHT22;2985;48.142;16.344;2022-07-09T06:00:38;18.20;99.50
5919;DHT22;2985;48.142;16.344;2022-07-09T06:05:29;18.40;99.10
5919;DHT22;2985;48.142;16.344;2022-07-09T06:10:20;18.30;99.10
5919;DHT22;2985;48.142;16.344;2022-07-09T06:15:11;18.30;99.30
5919;DHT22;2985;48.142;16.344;2022-07-09T06:20:03;18.40;99.00
5919;DHT22;2985;48.142;16.344;2022-07-09T06:24:54;18.60;98.50
5919;DHT22;2985;48.142;16.344;2022-07-09T06:29:45;18.70;98.70
5919;DHT22;2985;48.142;16.344;2022-07-09T06:34:35;18.70;98.50
5919;DHT22;2985;48.142;16.344;2022-07-09T06:39:26;18.80;99.00
5919;DHT22;2985;48.142;16.344;2022-07-09T06:44:35;18.90;98.00
5919;DHT22;2985;48.142;16.344;2022-07-09T06:49:26;18.90;98.90
5919;DHT22;2985;48.142;16.344;2022-07-09T06:54:17;18.70;99.10
5919;DHT22;2985;48.142;16.344;2022-07-09T06:59:08;19.10;98.70
5919;DHT22;2985;48.142;16.344;2022-07-09T07:03:59;19.20;98.70
5919;DHT22;2985;48.142;16.344;2022-07-09T07:08:49;19.10;98.40
5919;DHT22;2985;48.142;16.344;2022-07-09T07:13:40;19.20;98.50
5919;DHT22;2985;48.142;16.344;2022-07-09T07:18:31;19.00;98.20
5919;DHT22;2985;48.142;16.344;2022-07-09T07:23:22;19.50;97.40
5919;DHT22;2985;48.142;16.344;2022-07-09T07:28:13;19.20;97.10
5919;DHT22;2985;48.142;16.344;2022-07-09T07:33:03;19.30;96.90
5919;DHT22;2985;48.142;16.344;2022-07-09T07:37:54;19.50;96.80
5919;DHT22;2985;48.142;16.344;2022-07-09T07:42:45;19.50;95.90
5919;DHT22;2985;48.142;16.344;2022-07-09T07:47:36;19.70;95.80
5919;DHT22;2985;48.142;16.344;2022-07-09T07:52:27;20.20;93.40
5919;DHT22;2985;48.142;16.344;2022-07-09T07:57:18;19.90;93.70
5919;DHT22;2985;48.142;16.344;2022-07-09T08:02:09;19.80;94.10
5919;DHT22;2985;48.142;16.344;2022-07-09T08:07:00;19.90;94.00
5919;DHT22;2985;48.142;16.344;2022-07-09T08:11:51;20.20;92.40
5919;DHT22;2985;48.142;16.344;2022-07-09T08:16:42;20.20;91.80
5919;DHT22;2985;48.142;16.344;2022-07-09T08:21:33;20.40;91.90
5919;DHT22;2985;48.142;16.344;2022-07-09T08:26:24;20.50;90.80
5919;DHT22;2985;48.142;16.344;2022-07-09T08:31:16;20.90;91.90
5919;DHT22;2985;48.142;16.344;2022-07-09T08:36:08;20.90;91.60
5919;DHT22;2985;48.142;16.344;2022-07-09T08:41:00;20.40;92.40
5919;DHT22;2985;48.142;16.344;2022-07-09T08:45:53;20.50;91.60
5919;DHT22;2985;48.142;16.344;2022-07-09T08:50:47;20.90;91.20
5919;DHT22;2985;48.142;16.344;2022-07-09T08:55:38;20.80;89.00
5919;DHT22;2985;48.142;16.344;2022-07-09T09:00:31;20.50;90.40
5919;DHT22;2985;48.142;16.344;2022-07-09T09:05:22;20.80;90.40
5919;DHT22;2985;48.142;16.344;2022-07-09T09:10:24;20.90;89.30
5919;DHT22;2985;48.142;16.344;2022-07-09T09:15:18;20.70;88.90
5919;DHT22;2985;48.142;16.344;2022-07-09T09:20:15;21.20;88.50
5919;DHT22;2985;48.142;16.344;2022-07-09T09:25:07;21.50;84.00
5919;DHT22;2985;48.142;16.344;2022-07-09T09:29:58;21.40;84.70
5919;DHT22;2985;48.142;16.344;2022-07-09T09:34:50;21.60;86.30
5919;DHT22;2985;48.142;16.344;2022-07-09T09:39:49;21.30;85.20
5919;DHT22;2985;48.142;16.344;2022-07-09T09:44:42;21.70;84.60
5919;DHT22;2985;48.142;16.344;2022-07-09T09:49:37;22.00;82.30
5919;DHT22;2985;48.142;16.344;2022-07-09T09:54:28;22.60;81.30
5919;DHT22;2985;48.142;16.344;2022-07-09T09:59:19;22.10;77.90
5919;DHT22;2985;48.142;16.344;2022-07-09T10:04:12;22.00;79.20
5919;DHT22;2985;48.142;16.344;2022-07-09T10:09:04;22.40;77.90
5919;DHT22;2985;48.142;16.344;2022-07-09T10:13:56;22.80;77.10
5919;DHT22;2985;48.142;16.344;2022-07-09T10:18:53;22.60;76.00
5919;DHT22;2985;48.142;16.344;2022-07-09T10:23:50;22.50;75.00
5919;DHT22;2985;48.142;16.344;2022-07-09T10:28:41;22.50;75.10
5919;DHT22;2985;48.142;16.344;2022-07-09T10:33:33;22.80;74.40
5919;DHT22;2985;48.142;16.344;2022-07-09T10:38:34;22.50;74.10
5919;DHT22;2985;48.142;16.344;2022-07-09T10:48:36;22.70;75.90
5919;DHT22;2985;48.142;16.344;2022-07-09T10:53:29;22.80;74.70
5919;DHT22;2985;48.142;16.344;2022-07-09T10:58:21;22.90;75.30
5919;DHT22;2985;48.142;16.344;2022-07-09T11:03:13;22.90;75.20
5919;DHT22;2985;48.142;16.344;2022-07-09T11:08:05;22.80;75.50
5919;DHT22;2985;48.142;16.344;2022-07-09T11:12:58;23.10;75.30
5919;DHT22;2985;48.142;16.344;2022-07-09T11:18:11;23.00;75.40
5919;DHT22;2985;48.142;16.344;2022-07-09T11:23:04;23.10;73.60
5919;DHT22;2985;48.142;16.344;2022-07-09T11:27:59;23.30;74.60
5919;DHT22;2985;48.142;16.344;2022-07-09T11:32:50;23.60;73.40
5919;DHT22;2985;48.142;16.344;2022-07-09T11:37:45;23.70;73.70
5919;DHT22;2985;48.142;16.344;2022-07-09T11:42:41;23.70;74.60
5919;DHT22;2985;48.142;16.344;2022-07-09T11:47:39;23.20;75.00
5919;DHT22;2985;48.142;16.344;2022-07-09T11:52:30;23.90;74.40
5919;DHT22;2985;48.142;16.344;2022-07-09T11:57:22;23.20;75.20
5919;DHT22;2985;48.142;16.344;2022-07-09T12:02:25;23.40;74.40
5919;DHT22;2985;48.142;16.344;2022-07-09T12:07:16;23.30;74.60
5919;DHT22;2985;48.142;16.344;2022-07-09T12:12:07;23.80;72.50
5919;DHT22;2985;48.142;16.344;2022-07-09T12:16:59;23.70;72.70
5919;DHT22;2985;48.142;16.344;2022-07-09T12:21:49;24.10;71.50
5919;DHT22;2985;48.142;16.344;2022-07-09T12:26:40;24.40;69.40
5919;DHT22;2985;48.142;16.344;2022-07-09T12:31:31;24.10;69.40
5919;DHT22;2985;48.142;16.344;2022-07-09T12:36:23;24.00;69.60
5919;DHT22;2985;48.142;16.344;2022-07-09T12:41:13;24.10;68.30
5919;DHT22;2985;48.142;16.344;2022-07-09T12:46:04;23.90;68.20
5919;DHT22;2985;48.142;16.344;2022-07-09T12:50:58;24.10;66.70
5919;DHT22;2985;48.142;16.344;2022-07-09T12:55:49;24.50;66.60
5919;DHT22;2985;48.142;16.344;2022-07-09T13:00:41;24.40;66.00
5919;DHT22;2985;48.142;16.344;2022-07-09T13:05:32;24.50;66.50
5919;DHT22;2985;48.142;16.344;2022-07-09T13:10:23;24.50;63.50
5919;DHT22;2985;48.142;16.344;2022-07-09T13:15:13;25.20;63.20
5919;DHT22;2985;48.142;16.344;2022-07-09T13:20:05;25.10;63.60
5919;DHT22;2985;48.142;16.344;2022-07-09T13:24:56;25.30;63.30
5919;DHT22;2985;48.142;16.344;2022-07-09T13:29:47;24.50;63.40
5919;DHT22;2985;48.142;16.344;2022-07-09T13:34:38;24.30;64.70
5919;DHT22;2985;48.142;16.344;2022-07-09T13:39:29;24.10;65.90
5919;DHT22;2985;48.142;16.344;2022-07-09T13:44:20;24.10;67.50
5919;DHT22;2985;48.142;16.344;2022-07-09T13:49:10;24.20;71.70
5919;DHT22;2985;48.142;16.344;2022-07-09T13:54:01;23.90;73.80
5919;DHT22;2985;48.142;16.344;2022-07-09T13:58:52;23.90;76.60
5919;DHT22;2985;48.142;16.344;2022-07-09T14:03:42;24.20;76.90
5919;DHT22;2985;48.142;16.344;2022-07-09T14:08:33;24.80;74.90
5919;DHT22;2985;48.142;16.344;2022-07-09T14:13:25;24.80;74.20
5919;DHT22;2985;48.142;16.344;2022-07-09T14:18:16;24.80;75.30
5919;DHT22;2985;48.142;16.344;2022-07-09T14:23:07;24.80;76.40
5919;DHT22;2985;48.142;16.344;2022-07-09T14:27:58;24.70;75.80
5919;DHT22;2985;48.142;16.344;2022-07-09T14:32:48;23.90;76.90
5919;DHT22;2985;48.142;16.344;2022-07-09T14:37:39;23.20;78.70
5919;DHT22;2985;48.142;16.344;2022-07-09T14:42:30;23.00;78.80
5919;DHT22;2985;48.142;16.344;2022-07-09T14:47:21;22.80;78.90
5919;DHT22;2985;48.142;16.344;2022-07-09T14:52:15;22.60;79.40
5919;DHT22;2985;48.142;16.344;2022-07-09T14:57:06;22.40;80.50
5919;DHT22;2985;48.142;16.344;2022-07-09T15:01:57;22.30;81.40
5919;DHT22;2985;48.142;16.344;2022-07-09T15:06:48;22.20;82.00
5919;DHT22;2985;48.142;16.344;2022-07-09T15:11:39;22.10;82.80
5919;DHT22;2985;48.142;16.344;2022-07-09T15:16:30;22.30;83.30
5919;DHT22;2985;48.142;16.344;2022-07-09T15:21:20;24.00;79.70
5919;DHT22;2985;48.142;16.344;2022-07-09T15:26:11;27.90;68.90
5919;DHT22;2985;48.142;16.344;2022-07-09T15:31:02;28.40;68.40
5919;DHT22;2985;48.142;16.344;2022-07-09T15:35:57;26.20;68.10
5919;DHT22;2985;48.142;16.344;2022-07-09T15:40:47;26.50;69.80
5919;DHT22;2985;48.142;16.344;2022-07-09T15:45:38;25.60;69.70
5919;DHT22;2985;48.142;16.344;2022-07-09T15:50:29;25.60;70.00
5919;DHT22;2985;48.142;16.344;2022-07-09T15:55:20;24.80;71.40
5919;DHT22;2985;48.142;16.344;2022-07-09T16:00:12;27.00;69.20
5919;DHT22;2985;48.142;16.344;2022-07-09T16:05:04;25.20;70.60
5919;DHT22;2985;48.142;16.344;2022-07-09T16:09:55;23.90;74.20
5919;DHT22;2985;48.142;16.344;2022-07-09T16:14:46;23.50;75.90
5919;DHT22;2985;48.142;16.344;2022-07-09T16:19:36;23.40;76.00
5919;DHT22;2985;48.142;16.344;2022-07-09T16:24:27;23.40;77.10
5919;DHT22;2985;48.142;16.344;2022-07-09T16:29:18;23.10;78.90
5919;DHT22;2985;48.142;16.344;2022-07-09T16:34:09;22.60;83.50
5919;DHT22;2985;48.142;16.344;2022-07-09T16:38:59;22.30;90.80
5919;DHT22;2985;48.142;16.344;2022-07-09T16:43:50;22.10;90.60
5919;DHT22;2985;48.142;16.344;2022-07-09T16:48:43;21.70;92.40
5919;DHT22;2985;48.142;16.344;2022-07-09T16:53:34;22.00;92.00
5919;DHT22;2985;48.142;16.344;2022-07-09T16:58:24;22.00;91.70
5919;DHT22;2985;48.142;16.344;2022-07-09T17:03:15;22.20;90.90
5919;DHT22;2985;48.142;16.344;2022-07-09T17:08:06;22.30;90.70
5919;DHT22;2985;48.142;16.344;2022-07-09T17:12:57;22.30;90.10
5919;DHT22;2985;48.142;16.344;2022-07-09T17:17:48;22.10;90.10
5919;DHT22;2985;48.142;16.344;2022-07-09T17:22:38;22.10;90.10
5919;DHT22;2985;48.142;16.344;2022-07-09T17:27:29;22.00;90.50
5919;DHT22;2985;48.142;16.344;2022-07-09T17:32:20;21.90;90.60
5919;DHT22;2985;48.142;16.344;2022-07-09T17:37:12;21.80;90.90
5919;DHT22;2985;48.142;16.344;2022-07-09T17:42:03;21.70;91.10
5919;DHT22;2985;48.142;16.344;2022-07-09T17:46:54;21.70;91.10
5919;DHT22;2985;48.142;16.344;2022-07-09T17:51:45;21.70;91.30
5919;DHT22;2985;48.142;16.344;2022-07-09T17:56:35;21.70;91.50
5919;DHT22;2985;48.142;16.344;2022-07-09T18:01:26;21.70;92.00
5919;DHT22;2985;48.142;16.344;2022-07-09T18:06:17;21.50;93.50
5919;DHT22;2985;48.142;16.344;2022-07-09T18:11:08;20.50;94.00
5919;DHT22;2985;48.142;16.344;2022-07-09T18:16:00;19.60;98.50
5919;DHT22;2985;48.142;16.344;2022-07-09T18:20:50;18.90;99.90
5919;DHT22;2985;48.142;16.344;2022-07-09T18:25:41;18.80;99.90
5919;DHT22;2985;48.142;16.344;2022-07-09T18:30:32;18.50;99.90
5919;DHT22;2985;48.142;16.344;2022-07-09T18:35:23;18.30;99.90
5919;DHT22;2985;48.142;16.344;2022-07-09T18:40:14;18.20;99.90
5919;DHT22;2985;48.142;16.344;2022-07-09T18:45:05;18.10;99.90
5919;DHT22;2985;48.142;16.344;2022-07-09T18:49:56;18.00;99.90
5919;DHT22;2985;48.142;16.344;2022-07-09T18:54:47;17.90;99.90
5919;DHT22;2985;48.142;16.344;2022-07-09T18:59:38;17.80;99.90
5919;DHT22;2985;48.142;16.344;2022-07-09T19:04:28;17.70;99.90
5919;DHT22;2985;48.142;16.344;2022-07-09T19:09:19;17.80;99.90
5919;DHT22;2985;48.142;16.344;2022-07-09T19:14:10;17.80;99.90
5919;DHT22;2985;48.142;16.344;2022-07-09T19:19:01;17.50;99.90
5919;DHT22;2985;48.142;16.344;2022-07-09T19:23:51;17.40;99.90
5919;DHT22;2985;48.142;16.344;2022-07-09T19:28:42;17.20;99.90
5919;DHT22;2985;48.142;16.344;2022-07-09T19:33:34;17.30;99.90
5919;DHT22;2985;48.142;16.344;2022-07-09T19:38:43;17.20;99.90
5919;DHT22;2985;48.142;16.344;2022-07-09T19:43:34;17.00;99.90
5919;DHT22;2985;48.142;16.344;2022-07-09T19:48:25;17.00;99.90
5919;DHT22;2985;48.142;16.344;2022-07-09T19:53:15;17.00;99.90
5919;DHT22;2985;48.142;16.344;2022-07-09T19:58:06;17.10;99.90
5919;DHT22;2985;48.142;16.344;2022-07-09T20:02:57;17.00;99.90
5919;DHT22;2985;48.142;16.344;2022-07-09T20:07:48;17.10;99.90
5919;DHT22;2985;48.142;16.344;2022-07-09T20:12:39;17.10;99.90
5919;DHT22;2985;48.142;16.344;2022-07-09T20:17:30;17.10;99.90
5919;DHT22;2985;48.142;16.344;2022-07-09T20:22:21;17.10;99.90
5919;DHT22;2985;48.142;16.344;2022-07-09T20:27:12;17.20;99.90
5919;DHT22;2985;48.142;16.344;2022-07-09T20:32:04;17.10;99.90
5919;DHT22;2985;48.142;16.344;2022-07-09T20:36:55;17.30;99.90
5919;DHT22;2985;48.142;16.344;2022-07-09T20:41:46;17.20;99.90
5919;DHT22;2985;48.142;16.344;2022-07-09T20:46:36;17.20;99.90
5919;DHT22;2985;48.142;16.344;2022-07-09T20:51:28;17.30;99.90
5919;DHT22;2985;48.142;16.344;2022-07-09T20:56:19;17.30;99.90
5919;DHT22;2985;48.142;16.344;2022-07-09T21:01:10;17.20;99.90
5919;DHT22;2985;48.142;16.344;2022-07-09T21:06:01;17.30;99.90
5919;DHT22;2985;48.142;16.344;2022-07-09T21:10:52;17.30;99.90
5919;DHT22;2985;48.142;16.344;2022-07-09T21:15:43;17.30;99.90
5919;DHT22;2985;48.142;16.344;2022-07-09T21:20:34;17.30;99.90
5919;DHT22;2985;48.142;16.344;2022-07-09T21:25:25;17.20;99.90
5919;DHT22;2985;48.142;16.344;2022-07-09T21:30:16;17.20;99.90
5919;DHT22;2985;48.142;16.344;2022-07-09T21:35:07;17.30;99.90
5919;DHT22;2985;48.142;16.344;2022-07-09T21:39:58;17.30;99.90
5919;DHT22;2985;48.142;16.344;2022-07-09T21:44:49;17.40;99.90
5919;DHT22;2985;48.142;16.344;2022-07-09T21:49:40;17.20;99.90
5919;DHT22;2985;48.142;16.344;2022-07-09T21:54:31;17.30;99.90
5919;DHT22;2985;48.142;16.344;2022-07-09T21:59:22;17.30;99.90
5919;DHT22;2985;48.142;16.344;2022-07-09T22:04:13;17.30;99.90
5919;DHT22;2985;48.142;16.344;2022-07-09T22:09:04;17.40;99.90
5919;DHT22;2985;48.142;16.344;2022-07-09T22:13:54;17.40;99.90
5919;DHT22;2985;48.142;16.344;2022-07-09T22:18:45;17.40;99.90
5919;DHT22;2985;48.142;16.344;2022-07-09T22:23:37;17.30;99.90
5919;DHT22;2985;48.142;16.344;2022-07-09T22:28:27;17.30;99.90
5919;DHT22;2985;48.142;16.344;2022-07-09T22:33:18;17.30;99.90
5919;DHT22;2985;48.142;16.344;2022-07-09T22:38:09;17.40;99.90
5919;DHT22;2985;48.142;16.344;2022-07-09T22:43:00;17.50;99.90
5919;DHT22;2985;48.142;16.344;2022-07-09T22:47:51;17.50;99.90
5919;DHT22;2985;48.142;16.344;2022-07-09T22:52:41;17.50;99.90
5919;DHT22;2985;48.142;16.344;2022-07-09T22:57:33;17.40;99.90
5919;DHT22;2985;48.142;16.344;2022-07-09T23:02:24;17.40;99.90
5919;DHT22;2985;48.142;16.344;2022-07-09T23:07:15;17.30;99.90
5919;DHT22;2985;48.142;16.344;2022-07-09T23:12:26;17.20;99.90
5919;DHT22;2985;48.142;16.344;2022-07-09T23:17:16;17.20;99.90
5919;DHT22;2985;48.142;16.344;2022-07-09T23:22:07;17.20;99.90
5919;DHT22;2985;48.142;16.344;2022-07-09T23:26:58;17.20;99.90
5919;DHT22;2985;48.142;16.344;2022-07-09T23:31:49;17.20;99.90
5919;DHT22;2985;48.142;16.344;2022-07-09T23:36:41;17.20;99.90
5919;DHT22;2985;48.142;16.344;2022-07-09T23:41:31;17.20;99.90
5919;DHT22;2985;48.142;16.344;2022-07-09T23:46:22;17.20;99.90
5919;DHT22;2985;48.142;16.344;2022-07-09T23:51:13;17.20;99.90
5919;DHT22;2985;48.142;16.344;2022-07-09T23:56:05;17.30;99.90
